Time;durP1;ratioP1;P1;durP2;ratioP2;P2;SDS_P1;SDS_P2;PMS_P1;PMS_P2;Temp;Humidity;BMP_temperature;BMP_pressure;BME280_temperature;BME280_humidity;BME280_pressure;Samples;Min_cycle;Max_cycle;Signal;HPM_P1;HPM_P2
2023/08/01 00:05:58;;;;;;;;;;;;;;;;;;;;;
2023/08/01 00:12:01;;;;;;;;;;;;;;;;;;;;;
2023/08/01 00:28:04;;;;;;;;;;;;;;;;;;;;;
2023/08/01 00:33:15;;;;;;;;;2.25;2.25;;;;;;;;4698254;30;9775;-95
2023/08/01 00:36:11;;;;;;;;;;;;;;;;;;;;;
2023/08/01 00:39:09;;;;;;;;;3.00;3.00;;;;;;;;4714515;30;35100;-94
2023/08/01 00:48:26;;;;;;;;;;;;;;;;;;;;;
2023/08/01 01:00:38;;;;;;;;;;;;;;;;;;;;;
2023/08/01 01:09:48;;;;;;;;;;;;;;;;;;;;;
2023/08/01 01:13:03;;;;;;;;;;;;;;;;;;;;;
2023/08/01 01:16:04;;;;;;;;;3.50;3.50;;;;;;;;4701560;30;34756;-94
2023/08/01 01:22:18;;;;;;;;;;;;;;;;;;;;;
2023/08/01 01:25:15;;;;;;;;;;;;;;;;;;;;;
2023/08/01 01:31:16;;;;;;;;;;;;;;;;;;;;;
2023/08/01 01:34:03;;;;;;;;;;;;;;;;;;;;;
2023/08/01 01:49:53;;;;;;;;;;;;;;;;;;;;;
2023/08/01 01:55:55;;;;;;;;;;;;;;;;;;;;;
2023/08/01 02:01:57;;;;;;;;;;;;;;;;;;;;;
2023/08/01 02:04:56;;;;;;;;;;;;;;;;;;;;;
2023/08/01 02:07:48;;;;;;;;;7.50;6.50;;;;;;;;4732931;30;36928;-94
2023/08/01 02:13:18;;;;;;;;;10.25;7.50;;;;;;;;4698707;30;8887;-94
2023/08/01 02:34:42;;;;;;;;;5.75;5.50;;;;;;;;4683486;30;8870;-94
2023/08/01 02:40:58;;;;;;;;;;;;;;;;;;;;;
2023/08/01 02:49:52;;;;;;;;;9.50;7.75;;;;;;;;4738701;30;8854;-94
2023/08/01 02:52:37;;;;;;;;;6.25;6.25;;;;;;;;4739056;30;8836;-94
2023/08/01 02:55:39;;;;;;;;;6.00;6.00;;;;;;;;4744379;30;8851;-94
2023/08/01 02:58:55;;;;;;;;;;;;;;;;;;;;;
2023/08/01 03:01:41;;;;;;;;;;;;;;;;;;;;;
2023/08/01 03:04:17;;;;;;;;;;;;;;;;;;;;;
2023/08/01 03:07:11;;;;;;;;;8.00;7.25;;;;;;;;4764308;30;35901;-94
2023/08/01 03:10:11;;;;;;;;;6.00;6.00;;;;;;;;4747065;30;8859;-94
2023/08/01 03:13:11;;;;;;;;;;;;;;;;;;;;;
2023/08/01 03:16:17;;;;;;;;;8.67;8.67;;;;;;;;4704968;30;35398;-94
2023/08/01 03:19:19;;;;;;;;;;;;;;;;;;;;;
2023/08/01 03:24:53;;;;;;;;;7.00;7.00;;;;;;;;4760626;29;9727;-94
2023/08/01 03:27:44;;;;;;;;;6.00;6.00;;;;;;;;4757758;30;8980;-94
2023/08/01 03:30:49;;;;;;;;;;;;;;;;;;;;;
2023/08/01 03:33:32;;;;;;;;;;;;;;;;;;;;;
2023/08/01 03:55:01;;;;;;;;;;;;;;;;;;;;;
2023/08/01 04:01:47;;;;;;;;;;;;;;;;;;;;;
2023/08/01 04:07:16;;;;;;;;;;;;;;;;;;;;;
2023/08/01 04:13:09;;;;;;;;;;;;;;;;;;;;;
2023/08/01 04:15:50;;;;;;;;;5.50;5.50;;;;;;;;4781264;29;35188;-93
2023/08/01 04:24:55;;;;;;;;;4.50;4.50;;;;;;;;4768828;29;8868;-94
2023/08/01 04:28:36;;;;;;;;;;;;;;;;;;;;;
2023/08/01 04:49:24;;;;;;;;;14.00;12.50;;;;;;;;4697398;30;8883;-94
2023/08/01 04:52:19;;;;;;;;;;;;;;;;;;;;;
2023/08/01 05:04:58;;;;;;;;;;;;;;;;;;;;;
2023/08/01 05:10:59;;;;;;;;;;;;;;;;;;;;;
2023/08/01 05:26:21;;;;;;;;;;;;;;;;;;;;;
2023/08/01 05:32:24;;;;;;;;;;;;;;;;;;;;;
2023/08/01 05:35:38;;;;;;;;;;;;;;;;;;;;;
2023/08/01 05:41:40;;;;;;;;;;;;;;;;;;;;;
2023/08/01 05:47:56;;;;;;;;;;;;;;;;;;;;;
2023/08/01 05:56:58;;;;;;;;;;;;;;;;;;;;;
2023/08/01 06:06:11;;;;;;;;;;;;;;;;;;;;;
2023/08/01 06:08:56;;;;;;;;;6.50;6.50;;;;;;;;4630197;30;35881;-93
2023/08/01 06:18:58;;;;;;;;;;;;;;;;;;;;;
2023/08/01 06:21:17;;;;;;;;;;;;;;;;;;;;;
2023/08/01 06:30:38;;;;;;;;;;;;;;;;;;;;;
2023/08/01 06:40:09;;;;;;;;;;;;;;;;;;;;;
2023/08/01 07:51:00;;;;;;;;;3.50;3.50;;;;;;;;5497400;24;8954;-94
2023/08/01 07:53:26;;;;;;;;;3.33;3.33;;;;;;;;4842762;29;8860;-94
2023/08/01 07:55:52;;;;;;;;;2.25;2.25;;;;;;;;4851986;29;8916;-94
2023/08/01 07:58:17;;;;;;;;;2.00;2.00;;;;;;;;4851746;29;8841;-94
2023/08/01 08:13:17;;;;;;;;;2.00;1.50;;;;;;;;4795110;29;8821;-92
2023/08/01 09:33:51;;;;;;;;;2.75;2.75;;;;;;;;5669267;24;8878;-95
2023/08/01 09:36:20;;;;;;;;;1.00;1.00;;;;;;;;4787177;29;8835;-94
2023/08/01 09:38:46;;;;;;;;;1.00;1.00;;;;;;;;4785438;29;8845;-92
2023/08/01 09:41:16;;;;;;;;;1.00;1.00;;;;;;;;4781836;29;8825;-93
2023/08/01 09:43:42;;;;;;;;;1.75;1.75;;;;;;;;4786461;29;8807;-93
2023/08/01 09:46:07;;;;;;;;;1.00;1.00;;;;;;;;4784419;29;8834;-92
2023/08/01 09:48:32;;;;;;;;;0.00;0.00;;;;;;;;4784400;29;8888;-93
2023/08/01 09:51:13;;;;;;;;;1.00;1.00;;;;;;;;4781755;29;8946;-93
2023/08/01 09:53:49;;;;;;;;;1.25;1.25;;;;;;;;4784955;29;8862;-94
2023/08/01 09:56:17;;;;;;;;;1.00;1.00;;;;;;;;4784641;29;9679;-93
2023/08/01 09:58:43;;;;;;;;;0.50;0.50;;;;;;;;4782526;29;8814;-94
2023/08/01 10:01:08;;;;;;;;;1.00;1.00;;;;;;;;4785558;29;8850;-94
2023/08/01 10:03:34;;;;;;;;;0.67;0.67;;;;;;;;4788645;29;8838;-94
2023/08/01 10:05:59;;;;;;;;;0.33;0.33;;;;;;;;4787885;29;8863;-93
2023/08/01 10:08:25;;;;;;;;;0.67;0.67;;;;;;;;4788365;29;8952;-93
2023/08/01 10:10:51;;;;;;;;;1.00;1.00;;;;;;;;4779574;29;8883;-95
2023/08/01 10:13:17;;;;;;;;;0.00;0.00;;;;;;;;4781094;29;8818;-95
2023/08/01 10:15:43;;;;;;;;;1.00;1.00;;;;;;;;4781994;29;8846;-93
2023/08/01 10:18:09;;;;;;;;;0.25;0.25;;;;;;;;4781798;29;8914;-93
2023/08/01 10:20:36;;;;;;;;;0.25;0.25;;;;;;;;4781037;29;8822;-94
2023/08/01 10:23:02;;;;;;;;;1.00;1.00;;;;;;;;4786178;29;8818;-95
2023/08/01 10:25:28;;;;;;;;;0.00;0.00;;;;;;;;4783953;29;8818;-94
2023/08/01 10:27:58;;;;;;;;;0.00;0.00;;;;;;;;4788426;29;8966;-94
2023/08/01 10:30:26;;;;;;;;;0.00;0.00;;;;;;;;4787931;29;8815;-94
2023/08/01 10:32:54;;;;;;;;;0.00;0.00;;;;;;;;4790149;29;8833;-94
2023/08/01 10:35:19;;;;;;;;;1.00;1.00;;;;;;;;4783660;29;9877;-95
2023/08/01 10:37:47;;;;;;;;;0.67;0.67;;;;;;;;4785649;29;8842;-94
2023/08/01 10:40:12;;;;;;;;;1.00;1.00;;;;;;;;4787041;29;8860;-94
2023/08/01 10:42:42;;;;;;;;;1.00;1.00;;;;;;;;4791935;29;8823;-94
2023/08/01 10:45:08;;;;;;;;;0.50;0.50;;;;;;;;4790452;29;8818;-94
2023/08/01 10:47:33;;;;;;;;;1.00;1.00;;;;;;;;4792650;29;8816;-94
2023/08/01 10:49:58;;;;;;;;;0.67;0.67;;;;;;;;4790527;29;8854;-94
2023/08/01 10:52:28;;;;;;;;;1.00;1.00;;;;;;;;4792551;29;8948;-94
2023/08/01 10:54:59;;;;;;;;;1.00;1.00;;;;;;;;4790195;29;8889;-94
2023/08/01 10:57:24;;;;;;;;;1.25;1.25;;;;;;;;4786331;29;8825;-94
2023/08/01 10:59:50;;;;;;;;;2.00;1.00;;;;;;;;4785969;29;10892;-94
2023/08/01 11:02:23;;;;;;;;;0.00;0.00;;;;;;;;4784858;29;8869;-94
2023/08/01 11:05:01;;;;;;;;;1.00;1.00;;;;;;;;4781029;29;8851;-94
2023/08/01 11:07:27;;;;;;;;;0.00;0.00;;;;;;;;4787182;29;8950;-94
2023/08/01 11:10:08;;;;;;;;;1.00;1.00;;;;;;;;4789177;29;8972;-94
2023/08/01 11:12:38;;;;;;;;;1.75;1.75;;;;;;;;4781498;29;8937;-94
2023/08/01 11:15:04;;;;;;;;;3.50;2.00;;;;;;;;4787104;29;8853;-94
2023/08/01 11:17:30;;;;;;;;;0.25;0.00;;;;;;;;4788532;29;8866;-94
2023/08/01 11:20:07;;;;;;;;;0.00;0.00;;;;;;;;4787898;29;8869;-94
2023/08/01 11:22:32;;;;;;;;;0.00;0.00;;;;;;;;4788325;29;9862;-94
2023/08/01 11:24:58;;;;;;;;;0.33;0.33;;;;;;;;4785743;29;8853;-92
2023/08/01 11:27:24;;;;;;;;;0.75;0.75;;;;;;;;4782286;29;8894;-93
2023/08/01 11:29:49;;;;;;;;;1.00;1.00;;;;;;;;4787309;29;9119;-93
2023/08/01 11:32:14;;;;;;;;;1.33;1.33;;;;;;;;4791134;29;8881;-92
2023/08/01 11:34:41;;;;;;;;;1.67;1.67;;;;;;;;4791567;29;8850;-93
2023/08/01 11:37:06;;;;;;;;;0.75;0.75;;;;;;;;4789804;29;8841;-93
2023/08/01 11:39:31;;;;;;;;;5.00;5.00;;;;;;;;4788884;29;8877;-93
2023/08/01 11:41:57;;;;;;;;;1.00;1.00;;;;;;;;4790002;29;8952;-94
2023/08/01 11:44:25;;;;;;;;;1.67;1.67;;;;;;;;4789233;29;8858;-94
2023/08/01 11:46:50;;;;;;;;;0.75;0.75;;;;;;;;4788240;29;8980;-95
2023/08/01 11:49:15;;;;;;;;;1.00;1.00;;;;;;;;4791785;29;8980;-92
2023/08/01 11:51:41;;;;;;;;;1.00;1.00;;;;;;;;4788559;29;8901;-93
2023/08/01 11:54:08;;;;;;;;;1.00;1.00;;;;;;;;4787338;29;8845;-95
2023/08/01 11:56:33;;;;;;;;;0.00;0.00;;;;;;;;4790690;29;11622;-95
2023/08/01 11:59:07;;;;;;;;;0.67;0.67;;;;;;;;4782057;29;9074;-94
2023/08/01 12:01:37;;;;;;;;;0.00;0.00;;;;;;;;4790396;29;8825;-94
2023/08/01 12:04:02;;;;;;;;;1.00;1.00;;;;;;;;4788377;29;8804;-96
2023/08/01 12:06:30;;;;;;;;;0.00;0.00;;;;;;;;4791025;29;8919;-96
2023/08/01 12:09:05;;;;;;;;;0.75;0.75;;;;;;;;4789316;29;8881;-96
2023/08/01 12:11:33;;;;;;;;;0.50;0.50;;;;;;;;4790104;29;8927;-96
2023/08/01 12:14:02;;;;;;;;;0.00;0.00;;;;;;;;4788948;29;8799;-96
2023/08/01 12:16:27;;;;;;;;;1.25;1.00;;;;;;;;4791559;29;8830;-96
2023/08/01 12:18:52;;;;;;;;;1.00;1.00;;;;;;;;4786971;29;9607;-96
2023/08/01 12:21:17;;;;;;;;;0.00;0.00;;;;;;;;4788206;29;8850;-96
2023/08/01 12:23:43;;;;;;;;;0.00;0.00;;;;;;;;4787325;29;8873;-95
2023/08/01 12:26:15;;;;;;;;;1.00;1.00;;;;;;;;4788304;29;8861;-96
2023/08/01 12:28:41;;;;;;;;;1.00;1.00;;;;;;;;4790309;29;8854;-96
2023/08/01 12:31:06;;;;;;;;;1.00;1.00;;;;;;;;4791528;29;8882;-96
2023/08/01 12:33:32;;;;;;;;;3.00;1.00;;;;;;;;4787294;29;9820;-96
2023/08/01 12:35:59;;;;;;;;;0.25;0.25;;;;;;;;4791251;29;9693;-96
2023/08/01 12:38:24;;;;;;;;;0.25;0.25;;;;;;;;4777840;29;8810;-95
2023/08/01 12:40:49;;;;;;;;;0.00;0.00;;;;;;;;4789626;29;8841;-96
2023/08/01 12:43:16;;;;;;;;;0.33;0.33;;;;;;;;4790342;29;8858;-96
2023/08/01 12:45:41;;;;;;;;;1.00;1.00;;;;;;;;4789184;29;8996;-96
2023/08/01 12:48:07;;;;;;;;;0.33;0.33;;;;;;;;4789945;29;8992;-96
2023/08/01 12:50:32;;;;;;;;;0.67;0.67;;;;;;;;4789901;29;8861;-96
2023/08/01 12:52:57;;;;;;;;;1.00;1.00;;;;;;;;4788590;29;8858;-96
2023/08/01 12:55:22;;;;;;;;;1.00;1.00;;;;;;;;4786541;29;8873;-95
2023/08/01 12:57:48;;;;;;;;;1.00;1.00;;;;;;;;4784240;29;8836;-96
2023/08/01 13:00:13;;;;;;;;;1.67;1.67;;;;;;;;4783981;29;8961;-96
2023/08/01 13:02:38;;;;;;;;;0.00;0.00;;;;;;;;4786937;29;8868;-94
2023/08/01 13:05:04;;;;;;;;;1.00;1.00;;;;;;;;4787333;29;9034;-96
2023/08/01 13:07:32;;;;;;;;;1.67;1.67;;;;;;;;4787582;29;8946;-95
2023/08/01 13:10:00;;;;;;;;;1.00;1.00;;;;;;;;4785914;29;8869;-96
2023/08/01 13:12:25;;;;;;;;;1.00;1.00;;;;;;;;4787592;29;8853;-96
2023/08/01 13:14:51;;;;;;;;;4.00;2.00;;;;;;;;4787011;29;8857;-96
2023/08/01 13:17:19;;;;;;;;;2.00;2.00;;;;;;;;4785585;29;8865;-95
2023/08/01 13:19:46;;;;;;;;;0.00;0.00;;;;;;;;4789703;29;8827;-96
2023/08/01 13:22:12;;;;;;;;;2.00;2.00;;;;;;;;4790658;29;8841;-96
2023/08/01 13:24:37;;;;;;;;;1.00;1.00;;;;;;;;4790788;29;9728;-95
2023/08/01 13:27:02;;;;;;;;;3.67;2.00;;;;;;;;4789326;29;8904;-96
2023/08/01 13:29:28;;;;;;;;;2.00;1.00;;;;;;;;4789092;29;8854;-96
2023/08/01 13:31:53;;;;;;;;;0.00;0.00;;;;;;;;4786218;29;8926;-96
2023/08/01 13:34:18;;;;;;;;;1.00;1.00;;;;;;;;4788323;29;8858;-95
2023/08/01 13:36:44;;;;;;;;;2.00;2.00;;;;;;;;4788618;29;8866;-94
2023/08/01 13:39:09;;;;;;;;;1.00;1.00;;;;;;;;4790292;29;8885;-96
2023/08/01 13:41:34;;;;;;;;;0.67;0.67;;;;;;;;4790182;29;9007;-95
2023/08/01 13:44:00;;;;;;;;;1.33;1.33;;;;;;;;4790325;29;8911;-95
2023/08/01 13:46:25;;;;;;;;;1.00;1.00;;;;;;;;4786423;29;9002;-94
2023/08/01 13:48:50;;;;;;;;;0.00;0.00;;;;;;;;4786853;29;8881;-96
2023/08/01 13:51:17;;;;;;;;;0.00;0.00;;;;;;;;4788835;29;9441;-95
2023/08/01 13:53:42;;;;;;;;;1.00;1.00;;;;;;;;4790496;29;8923;-95
2023/08/01 13:56:08;;;;;;;;;0.33;0.33;;;;;;;;4786506;29;8890;-95
2023/08/01 13:58:33;;;;;;;;;1.00;1.00;;;;;;;;4779618;29;8886;-95
2023/08/01 14:01:06;;;;;;;;;0.00;0.00;;;;;;;;4785299;29;8928;-95
2023/08/01 14:03:32;;;;;;;;;1.50;1.50;;;;;;;;4788396;29;8849;-95
2023/08/01 14:06:03;;;;;;;;;1.00;1.00;;;;;;;;4788122;29;8881;-96
2023/08/01 14:08:28;;;;;;;;;0.25;0.00;;;;;;;;4787571;29;8854;-95
2023/08/01 14:10:53;;;;;;;;;1.00;1.00;;;;;;;;4787891;29;8838;-96
2023/08/01 14:13:19;;;;;;;;;1.00;1.00;;;;;;;;4789069;29;8857;-95
2023/08/01 14:15:46;;;;;;;;;1.67;1.67;;;;;;;;4792693;29;8911;-96
2023/08/01 14:18:11;;;;;;;;;1.00;1.00;;;;;;;;4793056;29;8853;-95
2023/08/01 14:20:36;;;;;;;;;0.00;0.00;;;;;;;;4792468;29;8870;-95
2023/08/01 14:23:02;;;;;;;;;1.00;0.00;;;;;;;;4790496;29;8866;-95
2023/08/01 14:25:27;;;;;;;;;0.00;0.00;;;;;;;;4792186;29;8842;-95
2023/08/01 14:27:52;;;;;;;;;1.67;1.00;;;;;;;;4791276;29;8889;-95
2023/08/01 14:30:18;;;;;;;;;0.33;0.33;;;;;;;;4782191;29;8849;-95
2023/08/01 14:32:43;;;;;;;;;0.67;0.67;;;;;;;;4790362;29;8942;-95
2023/08/01 14:35:09;;;;;;;;;1.00;1.00;;;;;;;;4791449;29;8960;-95
2023/08/01 14:37:35;;;;;;;;;1.25;1.25;;;;;;;;4790127;29;8845;-96
2023/08/01 14:40:00;;;;;;;;;1.00;1.00;;;;;;;;4783196;29;8857;-96
2023/08/01 14:42:25;;;;;;;;;0.00;0.00;;;;;;;;4790535;29;9641;-96
2023/08/01 14:44:51;;;;;;;;;0.67;0.67;;;;;;;;4791458;29;8857;-95
2023/08/01 14:47:16;;;;;;;;;0.67;0.67;;;;;;;;4785280;29;8931;-95
2023/08/01 14:49:43;;;;;;;;;1.00;1.00;;;;;;;;4791085;29;8897;-95
2023/08/01 14:52:09;;;;;;;;;1.50;1.50;;;;;;;;4786211;29;8778;-95
2023/08/01 14:54:35;;;;;;;;;2.33;2.33;;;;;;;;4786380;29;8862;-95
2023/08/01 14:57:00;;;;;;;;;1.00;1.00;;;;;;;;4785695;29;8818;-95
2023/08/01 14:59:26;;;;;;;;;2.67;2.67;;;;;;;;4788682;29;8845;-95
2023/08/01 15:01:51;;;;;;;;;1.33;1.33;;;;;;;;4784981;29;8866;-95
2023/08/01 15:04:16;;;;;;;;;1.00;1.00;;;;;;;;4783435;29;8988;-94
2023/08/01 15:06:41;;;;;;;;;2.00;2.00;;;;;;;;4790834;29;8823;-93
2023/08/01 15:09:07;;;;;;;;;1.00;1.00;;;;;;;;4790993;29;8921;-95
2023/08/01 15:11:32;;;;;;;;;1.00;1.00;;;;;;;;4789339;29;9628;-95
2023/08/01 15:13:57;;;;;;;;;2.00;2.00;;;;;;;;4791677;29;8850;-95
2023/08/01 15:16:22;;;;;;;;;2.00;2.00;;;;;;;;4791545;29;8916;-95
2023/08/01 15:18:47;;;;;;;;;1.00;1.00;;;;;;;;4789817;29;8883;-95
2023/08/01 15:21:13;;;;;;;;;2.00;2.00;;;;;;;;4791727;29;8873;-94
2023/08/01 15:23:38;;;;;;;;;3.00;1.33;;;;;;;;4790318;29;8877;-95
2023/08/01 15:26:03;;;;;;;;;0.33;0.33;;;;;;;;4789323;29;8877;-94
2023/08/01 15:28:28;;;;;;;;;1.00;1.00;;;;;;;;4789025;29;8890;-94
2023/08/01 15:31:04;;;;;;;;;0.67;0.67;;;;;;;;4791729;29;8842;-94
2023/08/01 15:33:30;;;;;;;;;1.00;1.00;;;;;;;;4789991;29;8769;-95
2023/08/01 15:35:59;;;;;;;;;1.25;1.25;;;;;;;;4791213;29;8875;-95
2023/08/01 15:38:24;;;;;;;;;0.00;0.00;;;;;;;;4792437;29;8823;-96
2023/08/01 15:40:52;;;;;;;;;1.00;1.00;;;;;;;;4791019;29;8933;-95
2023/08/01 15:43:17;;;;;;;;;1.75;1.75;;;;;;;;4790052;29;8936;-95
2023/08/01 15:45:43;;;;;;;;;2.00;2.00;;;;;;;;4791924;29;8932;-95
2023/08/01 15:48:08;;;;;;;;;2.00;2.00;;;;;;;;4789852;29;8900;-95
2023/08/01 15:50:33;;;;;;;;;1.00;1.00;;;;;;;;4791199;29;8854;-95
2023/08/01 15:52:58;;;;;;;;;1.00;1.00;;;;;;;;4790686;29;8912;-95
2023/08/01 15:55:23;;;;;;;;;1.00;1.00;;;;;;;;4790889;29;8838;-94
2023/08/01 15:57:49;;;;;;;;;1.00;1.00;;;;;;;;4790864;29;9653;-95
2023/08/01 16:00:16;;;;;;;;;1.00;1.00;;;;;;;;4789635;29;8869;-95
2023/08/01 16:02:46;;;;;;;;;0.50;0.50;;;;;;;;4790732;29;8850;-95
2023/08/01 16:05:15;;;;;;;;;2.00;1.00;;;;;;;;4788451;29;9783;-96
2023/08/01 16:07:40;;;;;;;;;0.75;0.75;;;;;;;;4785226;29;8868;-95
2023/08/01 16:10:05;;;;;;;;;1.67;1.67;;;;;;;;4789445;29;8873;-95
2023/08/01 16:12:31;;;;;;;;;1.67;1.67;;;;;;;;4789053;29;8865;-94
2023/08/01 16:14:56;;;;;;;;;1.00;1.00;;;;;;;;4790268;29;8869;-95
2023/08/01 16:17:21;;;;;;;;;0.67;0.67;;;;;;;;4784923;29;8845;-95
2023/08/01 16:19:46;;;;;;;;;1.00;1.00;;;;;;;;4785253;29;8898;-95
2023/08/01 16:22:14;;;;;;;;;0.33;0.33;;;;;;;;4788706;29;8862;-95
2023/08/01 16:24:39;;;;;;;;;2.75;2.75;;;;;;;;4789885;29;8853;-95
2023/08/01 16:27:05;;;;;;;;;0.67;0.67;;;;;;;;4789166;29;9578;-95
2023/08/01 16:29:30;;;;;;;;;1.00;1.00;;;;;;;;4790344;29;8854;-95
2023/08/01 16:31:55;;;;;;;;;1.00;1.00;;;;;;;;4789530;29;8892;-96
2023/08/01 16:34:21;;;;;;;;;0.00;0.00;;;;;;;;4788927;29;8866;-95
2023/08/01 16:36:46;;;;;;;;;1.33;1.33;;;;;;;;4787573;29;8890;-96
2023/08/01 16:39:11;;;;;;;;;1.00;1.00;;;;;;;;4789436;29;8862;-94
2023/08/01 16:41:36;;;;;;;;;1.00;1.00;;;;;;;;4789023;29;8850;-95
2023/08/01 16:44:02;;;;;;;;;2.33;2.00;;;;;;;;4787593;29;8858;-95
2023/08/01 16:46:28;;;;;;;;;0.67;0.67;;;;;;;;4786064;29;8933;-95
2023/08/01 16:48:53;;;;;;;;;1.75;1.75;;;;;;;;4790273;29;8838;-95
2023/08/01 16:51:21;;;;;;;;;0.00;0.00;;;;;;;;4789262;29;9628;-95
2023/08/01 16:53:46;;;;;;;;;0.75;0.75;;;;;;;;4789568;29;9738;-95
2023/08/01 16:56:11;;;;;;;;;0.00;0.00;;;;;;;;4788928;29;8967;-95
2023/08/01 16:58:37;;;;;;;;;1.00;1.00;;;;;;;;4780846;29;8942;-95
2023/08/01 17:01:02;;;;;;;;;1.00;1.00;;;;;;;;4789229;29;8870;-95
2023/08/01 17:03:27;;;;;;;;;1.00;1.00;;;;;;;;4787148;29;8910;-95
2023/08/01 17:05:53;;;;;;;;;1.33;1.00;;;;;;;;4787418;29;8942;-95
2023/08/01 17:08:18;;;;;;;;;1.00;1.00;;;;;;;;4789332;29;8999;-95
2023/08/01 17:10:43;;;;;;;;;1.00;1.00;;;;;;;;4787511;29;8929;-95
2023/08/01 17:13:08;;;;;;;;;1.00;1.00;;;;;;;;4784973;29;9037;-94
2023/08/01 17:15:34;;;;;;;;;0.00;0.00;;;;;;;;4786000;29;8862;-95
2023/08/01 17:17:59;;;;;;;;;0.33;0.33;;;;;;;;4786277;29;8884;-95
2023/08/01 17:20:24;;;;;;;;;1.00;1.00;;;;;;;;4789795;29;8958;-95
2023/08/01 17:22:49;;;;;;;;;1.00;1.00;;;;;;;;4788629;29;8857;-95
2023/08/01 17:25:15;;;;;;;;;2.00;2.00;;;;;;;;4788356;29;8866;-95
2023/08/01 17:27:45;;;;;;;;;2.67;1.67;;;;;;;;4792728;29;8856;-94
2023/08/01 17:30:13;;;;;;;;;1.00;1.00;;;;;;;;4794088;29;8857;-95
2023/08/01 17:32:51;;;;;;;;;;;;;;;;;;;;;
2023/08/01 17:35:16;;;;;;;;;1.25;1.25;;;;;;;;4787846;29;36396;-95
2023/08/01 17:37:42;;;;;;;;;2.00;2.00;;;;;;;;4787939;29;8857;-95
2023/08/01 17:40:10;;;;;;;;;1.67;1.67;;;;;;;;4787751;29;8909;-96
2023/08/01 17:42:35;;;;;;;;;2.00;2.00;;;;;;;;4789751;29;8935;-96
2023/08/01 17:45:01;;;;;;;;;1.00;1.00;;;;;;;;4788599;29;8862;-95
2023/08/01 17:47:27;;;;;;;;;1.00;1.00;;;;;;;;4788463;29;8861;-95
2023/08/01 17:49:55;;;;;;;;;0.25;0.25;;;;;;;;4791215;29;8869;-95
2023/08/01 17:52:20;;;;;;;;;1.00;1.00;;;;;;;;4786183;29;163270;-95
2023/08/01 17:54:46;;;;;;;;;2.00;2.00;;;;;;;;4793455;29;11628;-95
2023/08/01 17:57:13;;;;;;;;;0.67;0.67;;;;;;;;4786985;29;8893;-94
2023/08/01 17:59:43;;;;;;;;;2.00;2.00;;;;;;;;3969638;29;24748089;-94
2023/08/01 18:02:09;;;;;;;;;1.75;1.75;;;;;;;;4790428;29;8826;-95
2023/08/01 18:04:47;;;;;;;;;;;;;;;;;;;;;
2023/08/01 18:07:12;;;;;;;;;1.75;1.75;;;;;;;;4791436;29;36926;-94
2023/08/01 18:10:01;;;;;;;;;1.67;1.00;;;;;;;;4790147;29;8892;-95
2023/08/01 18:12:25;;;;;;;;;1.00;1.00;;;;;;;;4622291;29;4919636;-95
